sensor_id;sensor_type;location;lat;lon;timestamp;P1;durP1;ratioP1;P2;durP2;ratioP2
291;SDS011;23311;48.776;9.162;2023-10-19T00:00:32;13.83;;;13.13;;
291;SDS011;23311;48.776;9.162;2023-10-19T00:03:02;13.60;;;12.90;;
291;SDS011;23311;48.776;9.162;2023-10-19T00:05:30;13.93;;;13.27;;
291;SDS011;23311;48.776;9.162;2023-10-19T00:08:00;15.10;;;13.53;;
291;SDS011;23311;48.776;9.162;2023-10-19T00:10:34;15.57;;;13.73;;
291;SDS011;23311;48.776;9.162;2023-10-19T00:13:02;15.37;;;14.57;;
291;SDS011;23311;48.776;9.162;2023-10-19T00:15:31;13.70;;;13.03;;
291;SDS011;23311;48.776;9.162;2023-10-19T00:18:01;13.43;;;12.70;;
291;SDS011;23311;48.776;9.162;2023-10-19T00:20:47;13.70;;;12.33;;
291;SDS011;23311;48.776;9.162;2023-10-19T00:23:22;13.80;;;13.10;;
291;SDS011;23311;48.776;9.162;2023-10-19T00:25:57;13.83;;;13.17;;
291;SDS011;23311;48.776;9.162;2023-10-19T00:28:26;12.80;;;11.90;;
291;SDS011;23311;48.776;9.162;2023-10-19T00:30:55;15.63;;;12.50;;
291;SDS011;23311;48.776;9.162;2023-10-19T00:33:30;10.83;;;10.00;;
291;SDS011;23311;48.776;9.162;2023-10-19T00:35:59;7.33;;;6.93;;
291;SDS011;23311;48.776;9.162;2023-10-19T00:38:35;6.97;;;6.57;;
291;SDS011;23311;48.776;9.162;2023-10-19T00:41:08;8.10;;;7.20;;
291;SDS011;23311;48.776;9.162;2023-10-19T00:43:46;7.80;;;6.60;;
291;SDS011;23311;48.776;9.162;2023-10-19T00:46:17;7.20;;;6.80;;
291;SDS011;23311;48.776;9.162;2023-10-19T00:48:53;5.60;;;5.30;;
291;SDS011;23311;48.776;9.162;2023-10-19T00:51:23;6.27;;;5.93;;
291;SDS011;23311;48.776;9.162;2023-10-19T00:54:06;7.60;;;5.93;;
291;SDS011;23311;48.776;9.162;2023-10-19T00:56:41;6.40;;;6.10;;
291;SDS011;23311;48.776;9.162;2023-10-19T00:59:16;6.93;;;6.03;;
291;SDS011;23311;48.776;9.162;2023-10-19T01:01:50;8.00;;;5.70;;
291;SDS011;23311;48.776;9.162;2023-10-19T01:04:24;8.97;;;6.80;;
291;SDS011;23311;48.776;9.162;2023-10-19T01:06:58;7.13;;;6.53;;
291;SDS011;23311;48.776;9.162;2023-10-19T01:09:33;8.67;;;6.70;;
291;SDS011;23311;48.776;9.162;2023-10-19T01:12:03;6.90;;;6.50;;
291;SDS011;23311;48.776;9.162;2023-10-19T01:15:00;7.33;;;6.93;;
291;SDS011;23311;48.776;9.162;2023-10-19T01:17:34;8.00;;;5.80;;
291;SDS011;23311;48.776;9.162;2023-10-19T01:20:07;5.97;;;5.60;;
291;SDS011;23311;48.776;9.162;2023-10-19T01:22:52;7.40;;;6.57;;
291;SDS011;23311;48.776;9.162;2023-10-19T01:25:32;6.83;;;6.43;;
291;SDS011;23311;48.776;9.162;2023-10-19T01:28:08;5.80;;;5.50;;
291;SDS011;23311;48.776;9.162;2023-10-19T01:30:42;6.73;;;5.47;;
291;SDS011;23311;48.776;9.162;2023-10-19T01:33:11;5.47;;;5.07;;
291;SDS011;23311;48.776;9.162;2023-10-19T01:35:42;9.83;;;6.90;;
291;SDS011;23311;48.776;9.162;2023-10-19T01:38:29;9.03;;;5.90;;
291;SDS011;23311;48.776;9.162;2023-10-19T01:40:58;6.37;;;5.73;;
291;SDS011;23311;48.776;9.162;2023-10-19T01:43:25;11.73;;;6.60;;
291;SDS011;23311;48.776;9.162;2023-10-19T01:45:57;7.03;;;5.53;;
291;SDS011;23311;48.776;9.162;2023-10-19T01:48:30;10.50;;;8.07;;
291;SDS011;23311;48.776;9.162;2023-10-19T01:51:01;12.07;;;9.23;;
291;SDS011;23311;48.776;9.162;2023-10-19T01:53:32;5.77;;;5.30;;
291;SDS011;23311;48.776;9.162;2023-10-19T01:56:02;9.40;;;5.83;;
291;SDS011;23311;48.776;9.162;2023-10-19T01:58:32;6.27;;;5.73;;
291;SDS011;23311;48.776;9.162;2023-10-19T02:01:03;8.77;;;5.30;;
291;SDS011;23311;48.776;9.162;2023-10-19T02:03:41;7.37;;;5.50;;
291;SDS011;23311;48.776;9.162;2023-10-19T02:06:09;5.73;;;5.43;;
291;SDS011;23311;48.776;9.162;2023-10-19T02:08:48;10.67;;;8.23;;
291;SDS011;23311;48.776;9.162;2023-10-19T02:11:19;5.20;;;4.37;;
291;SDS011;23311;48.776;9.162;2023-10-19T02:13:48;12.37;;;7.93;;
291;SDS011;23311;48.776;9.162;2023-10-19T02:16:17;6.60;;;6.00;;
291;SDS011;23311;48.776;9.162;2023-10-19T02:18:48;9.30;;;6.13;;
291;SDS011;23311;48.776;9.162;2023-10-19T02:21:16;7.90;;;5.90;;
291;SDS011;23311;48.776;9.162;2023-10-19T02:23:50;10.13;;;7.60;;
291;SDS011;23311;48.776;9.162;2023-10-19T02:26:18;9.20;;;7.73;;
291;SDS011;23311;48.776;9.162;2023-10-19T02:28:49;7.10;;;6.70;;
291;SDS011;23311;48.776;9.162;2023-10-19T02:31:19;8.00;;;6.63;;
291;SDS011;23311;48.776;9.162;2023-10-19T02:33:48;7.20;;;6.80;;
291;SDS011;23311;48.776;9.162;2023-10-19T02:36:24;8.97;;;6.07;;
291;SDS011;23311;48.776;9.162;2023-10-19T02:38:56;6.70;;;6.17;;
291;SDS011;23311;48.776;9.162;2023-10-19T02:41:26;10.20;;;6.00;;
291;SDS011;23311;48.776;9.162;2023-10-19T02:43:53;8.37;;;7.33;;
291;SDS011;23311;48.776;9.162;2023-10-19T02:46:31;10.80;;;10.17;;
291;SDS011;23311;48.776;9.162;2023-10-19T02:49:00;12.70;;;11.40;;
291;SDS011;23311;48.776;9.162;2023-10-19T02:51:29;14.00;;;12.87;;
291;SDS011;23311;48.776;9.162;2023-10-19T02:53:58;14.80;;;12.60;;
291;SDS011;23311;48.776;9.162;2023-10-19T02:56:28;14.87;;;11.60;;
291;SDS011;23311;48.776;9.162;2023-10-19T02:58:56;16.20;;;14.03;;
291;SDS011;23311;48.776;9.162;2023-10-19T03:01:30;17.60;;;13.60;;
291;SDS011;23311;48.776;9.162;2023-10-19T03:04:00;17.20;;;14.30;;
291;SDS011;23311;48.776;9.162;2023-10-19T03:06:31;15.90;;;14.17;;
291;SDS011;23311;48.776;9.162;2023-10-19T03:09:03;17.33;;;15.20;;
291;SDS011;23311;48.776;9.162;2023-10-19T03:11:39;15.50;;;13.80;;
291;SDS011;23311;48.776;9.162;2023-10-19T03:14:08;19.67;;;15.30;;
291;SDS011;23311;48.776;9.162;2023-10-19T03:16:36;18.30;;;15.37;;
291;SDS011;23311;48.776;9.162;2023-10-19T03:19:08;17.53;;;15.77;;
291;SDS011;23311;48.776;9.162;2023-10-19T03:21:35;16.67;;;15.83;;
291;SDS011;23311;48.776;9.162;2023-10-19T03:24:10;17.50;;;15.90;;
291;SDS011;23311;48.776;9.162;2023-10-19T03:26:49;17.33;;;15.77;;
291;SDS011;23311;48.776;9.162;2023-10-19T03:29:18;18.53;;;15.60;;
291;SDS011;23311;48.776;9.162;2023-10-19T03:31:49;20.40;;;18.13;;
291;SDS011;23311;48.776;9.162;2023-10-19T03:34:18;18.60;;;16.30;;
291;SDS011;23311;48.776;9.162;2023-10-19T03:36:50;18.90;;;17.13;;
291;SDS011;23311;48.776;9.162;2023-10-19T03:39:20;18.60;;;17.70;;
291;SDS011;23311;48.776;9.162;2023-10-19T03:41:49;21.17;;;18.07;;
291;SDS011;23311;48.776;9.162;2023-10-19T03:44:19;20.30;;;17.53;;
291;SDS011;23311;48.776;9.162;2023-10-19T03:46:51;18.07;;;16.43;;
291;SDS011;23311;48.776;9.162;2023-10-19T03:49:24;21.30;;;17.20;;
291;SDS011;23311;48.776;9.162;2023-10-19T03:51:59;21.10;;;18.53;;
291;SDS011;23311;48.776;9.162;2023-10-19T03:54:48;19.30;;;17.90;;
291;SDS011;23311;48.776;9.162;2023-10-19T03:57:17;18.90;;;17.40;;
291;SDS011;23311;48.776;9.162;2023-10-19T03:59:51;14.53;;;13.03;;
291;SDS011;23311;48.776;9.162;2023-10-19T04:02:23;15.43;;;13.00;;
291;SDS011;23311;48.776;9.162;2023-10-19T04:04:53;19.13;;;17.10;;
291;SDS011;23311;48.776;9.162;2023-10-19T04:07:24;24.40;;;18.57;;
291;SDS011;23311;48.776;9.162;2023-10-19T04:09:54;19.10;;;17.20;;
291;SDS011;23311;48.776;9.162;2023-10-19T04:12:36;18.67;;;16.83;;
291;SDS011;23311;48.776;9.162;2023-10-19T04:15:09;17.90;;;15.47;;
291;SDS011;23311;48.776;9.162;2023-10-19T04:17:39;18.20;;;16.83;;
291;SDS011;23311;48.776;9.162;2023-10-19T04:20:09;17.73;;;15.77;;
291;SDS011;23311;48.776;9.162;2023-10-19T04:22:53;19.80;;;16.37;;
291;SDS011;23311;48.776;9.162;2023-10-19T04:25:22;19.00;;;15.60;;
291;SDS011;23311;48.776;9.162;2023-10-19T04:27:53;17.70;;;15.67;;
291;SDS011;23311;48.776;9.162;2023-10-19T04:30:23;17.70;;;15.17;;
291;SDS011;23311;48.776;9.162;2023-10-19T04:32:53;19.97;;;17.43;;
291;SDS011;23311;48.776;9.162;2023-10-19T04:35:24;21.80;;;17.20;;
291;SDS011;23311;48.776;9.162;2023-10-19T04:37:56;21.37;;;16.90;;
291;SDS011;23311;48.776;9.162;2023-10-19T04:40:27;21.97;;;16.00;;
291;SDS011;23311;48.776;9.162;2023-10-19T04:42:55;22.40;;;17.30;;
291;SDS011;23311;48.776;9.162;2023-10-19T04:45:23;17.33;;;16.43;;
291;SDS011;23311;48.776;9.162;2023-10-19T04:47:52;19.00;;;16.27;;
291;SDS011;23311;48.776;9.162;2023-10-19T04:50:21;17.90;;;16.17;;
291;SDS011;23311;48.776;9.162;2023-10-19T04:52:50;21.07;;;17.20;;
291;SDS011;23311;48.776;9.162;2023-10-19T04:55:18;20.20;;;15.17;;
291;SDS011;23311;48.776;9.162;2023-10-19T04:57:48;21.83;;;16.30;;
291;SDS011;23311;48.776;9.162;2023-10-19T05:00:17;19.67;;;16.50;;
291;SDS011;23311;48.776;9.162;2023-10-19T05:02:47;20.20;;;16.40;;
291;SDS011;23311;48.776;9.162;2023-10-19T05:05:18;18.00;;;14.50;;
291;SDS011;23311;48.776;9.162;2023-10-19T05:07:47;18.17;;;15.27;;
291;SDS011;23311;48.776;9.162;2023-10-19T05:10:15;18.47;;;16.40;;
291;SDS011;23311;48.776;9.162;2023-10-19T05:12:43;17.10;;;16.20;;
291;SDS011;23311;48.776;9.162;2023-10-19T05:15:13;18.23;;;16.20;;
291;SDS011;23311;48.776;9.162;2023-10-19T05:17:42;21.70;;;17.53;;
291;SDS011;23311;48.776;9.162;2023-10-19T05:20:10;19.80;;;17.90;;
291;SDS011;23311;48.776;9.162;2023-10-19T05:22:39;22.40;;;17.40;;
291;SDS011;23311;48.776;9.162;2023-10-19T05:25:07;22.20;;;18.43;;
291;SDS011;23311;48.776;9.162;2023-10-19T05:27:35;22.30;;;17.90;;
291;SDS011;23311;48.776;9.162;2023-10-19T05:30:05;19.17;;;16.70;;
291;SDS011;23311;48.776;9.162;2023-10-19T05:32:38;23.50;;;18.67;;
291;SDS011;23311;48.776;9.162;2023-10-19T05:35:06;23.97;;;18.63;;
291;SDS011;23311;48.776;9.162;2023-10-19T05:37:39;25.80;;;18.60;;
291;SDS011;23311;48.776;9.162;2023-10-19T05:40:08;23.10;;;18.57;;
291;SDS011;23311;48.776;9.162;2023-10-19T05:42:41;18.80;;;16.90;;
291;SDS011;23311;48.776;9.162;2023-10-19T05:45:09;20.23;;;16.90;;
291;SDS011;23311;48.776;9.162;2023-10-19T05:47:41;23.10;;;16.50;;
291;SDS011;23311;48.776;9.162;2023-10-19T05:50:10;20.90;;;17.50;;
291;SDS011;23311;48.776;9.162;2023-10-19T05:52:40;21.23;;;18.10;;
291;SDS011;23311;48.776;9.162;2023-10-19T05:55:09;20.20;;;18.70;;
291;SDS011;23311;48.776;9.162;2023-10-19T05:57:38;23.43;;;19.30;;
291;SDS011;23311;48.776;9.162;2023-10-19T06:00:08;23.40;;;20.63;;
291;SDS011;23311;48.776;9.162;2023-10-19T06:02:45;25.00;;;18.87;;
291;SDS011;23311;48.776;9.162;2023-10-19T06:05:16;22.00;;;17.50;;
291;SDS011;23311;48.776;9.162;2023-10-19T06:07:45;20.13;;;17.00;;
291;SDS011;23311;48.776;9.162;2023-10-19T06:10:15;20.80;;;17.20;;
291;SDS011;23311;48.776;9.162;2023-10-19T06:12:44;19.73;;;16.50;;
291;SDS011;23311;48.776;9.162;2023-10-19T06:15:14;22.23;;;18.03;;
291;SDS011;23311;48.776;9.162;2023-10-19T06:17:43;22.07;;;18.30;;
291;SDS011;23311;48.776;9.162;2023-10-19T06:20:15;20.73;;;17.73;;
291;SDS011;23311;48.776;9.162;2023-10-19T06:22:53;18.80;;;15.90;;
291;SDS011;23311;48.776;9.162;2023-10-19T06:25:23;20.37;;;16.70;;
291;SDS011;23311;48.776;9.162;2023-10-19T06:27:52;20.90;;;18.90;;
291;SDS011;23311;48.776;9.162;2023-10-19T06:30:24;25.13;;;18.60;;
291;SDS011;23311;48.776;9.162;2023-10-19T06:32:55;22.00;;;17.43;;
291;SDS011;23311;48.776;9.162;2023-10-19T06:35:27;19.07;;;18.07;;
291;SDS011;23311;48.776;9.162;2023-10-19T06:37:58;21.10;;;18.00;;
291;SDS011;23311;48.776;9.162;2023-10-19T06:40:27;20.73;;;17.53;;
291;SDS011;23311;48.776;9.162;2023-10-19T06:42:56;20.73;;;16.77;;
291;SDS011;23311;48.776;9.162;2023-10-19T06:45:25;21.30;;;17.60;;
291;SDS011;23311;48.776;9.162;2023-10-19T06:47:54;20.97;;;17.80;;
291;SDS011;23311;48.776;9.162;2023-10-19T06:50:23;17.97;;;17.13;;
291;SDS011;23311;48.776;9.162;2023-10-19T06:52:52;22.17;;;18.60;;
291;SDS011;23311;48.776;9.162;2023-10-19T06:55:21;22.67;;;18.70;;
291;SDS011;23311;48.776;9.162;2023-10-19T06:57:50;18.87;;;16.50;;
291;SDS011;23311;48.776;9.162;2023-10-19T07:00:19;21.87;;;18.27;;
291;SDS011;23311;48.776;9.162;2023-10-19T07:02:49;20.83;;;17.13;;
291;SDS011;23311;48.776;9.162;2023-10-19T07:05:19;23.70;;;17.30;;
291;SDS011;23311;48.776;9.162;2023-10-19T07:07:48;19.93;;;18.70;;
291;SDS011;23311;48.776;9.162;2023-10-19T07:10:18;23.20;;;17.17;;
291;SDS011;23311;48.776;9.162;2023-10-19T07:12:47;19.43;;;16.97;;
291;SDS011;23311;48.776;9.162;2023-10-19T07:15:18;18.30;;;17.07;;
291;SDS011;23311;48.776;9.162;2023-10-19T07:17:48;18.50;;;16.73;;
291;SDS011;23311;48.776;9.162;2023-10-19T07:20:20;23.83;;;17.13;;
291;SDS011;23311;48.776;9.162;2023-10-19T07:22:58;19.17;;;17.37;;
291;SDS011;23311;48.776;9.162;2023-10-19T07:25:33;20.10;;;16.67;;
291;SDS011;23311;48.776;9.162;2023-10-19T07:28:10;19.30;;;15.63;;
291;SDS011;23311;48.776;9.162;2023-10-19T07:30:39;19.17;;;16.20;;
291;SDS011;23311;48.776;9.162;2023-10-19T07:33:08;19.43;;;15.50;;
291;SDS011;23311;48.776;9.162;2023-10-19T07:35:37;16.53;;;15.73;;
291;SDS011;23311;48.776;9.162;2023-10-19T07:38:09;18.30;;;16.10;;
291;SDS011;23311;48.776;9.162;2023-10-19T07:40:37;17.90;;;16.10;;
291;SDS011;23311;48.776;9.162;2023-10-19T07:43:05;16.97;;;15.57;;
291;SDS011;23311;48.776;9.162;2023-10-19T07:45:34;20.43;;;17.30;;
291;SDS011;23311;48.776;9.162;2023-10-19T07:48:05;23.87;;;18.50;;
291;SDS011;23311;48.776;9.162;2023-10-19T07:50:34;17.13;;;16.23;;
291;SDS011;23311;48.776;9.162;2023-10-19T07:53:04;18.90;;;16.10;;
291;SDS011;23311;48.776;9.162;2023-10-19T07:55:32;19.97;;;17.43;;
291;SDS011;23311;48.776;9.162;2023-10-19T07:58:00;18.73;;;16.37;;
291;SDS011;23311;48.776;9.162;2023-10-19T08:00:30;17.87;;;15.37;;
291;SDS011;23311;48.776;9.162;2023-10-19T08:03:00;18.67;;;14.87;;
291;SDS011;23311;48.776;9.162;2023-10-19T08:05:29;27.57;;;15.73;;
291;SDS011;23311;48.776;9.162;2023-10-19T08:07:57;14.80;;;13.93;;
291;SDS011;23311;48.776;9.162;2023-10-19T08:10:28;22.90;;;16.03;;
291;SDS011;23311;48.776;9.162;2023-10-19T08:12:56;19.73;;;13.73;;
291;SDS011;23311;48.776;9.162;2023-10-19T08:15:26;19.20;;;15.13;;
291;SDS011;23311;48.776;9.162;2023-10-19T08:17:56;17.87;;;14.87;;
291;SDS011;23311;48.776;9.162;2023-10-19T08:20:25;18.10;;;15.80;;
291;SDS011;23311;48.776;9.162;2023-10-19T08:22:58;22.50;;;15.33;;
291;SDS011;23311;48.776;9.162;2023-10-19T08:25:30;14.13;;;13.43;;
291;SDS011;23311;48.776;9.162;2023-10-19T08:28:19;16.60;;;13.30;;
291;SDS011;23311;48.776;9.162;2023-10-19T08:30:47;14.87;;;13.83;;
291;SDS011;23311;48.776;9.162;2023-10-19T08:33:24;18.73;;;13.50;;
291;SDS011;23311;48.776;9.162;2023-10-19T08:35:53;13.07;;;11.60;;
291;SDS011;23311;48.776;9.162;2023-10-19T08:38:21;18.40;;;12.50;;
291;SDS011;23311;48.776;9.162;2023-10-19T08:40:51;13.90;;;12.47;;
291;SDS011;23311;48.776;9.162;2023-10-19T08:43:19;16.03;;;13.30;;
291;SDS011;23311;48.776;9.162;2023-10-19T08:45:49;16.07;;;12.43;;
291;SDS011;23311;48.776;9.162;2023-10-19T08:48:17;21.73;;;14.20;;
291;SDS011;23311;48.776;9.162;2023-10-19T08:50:46;19.10;;;12.23;;
291;SDS011;23311;48.776;9.162;2023-10-19T08:53:15;17.17;;;11.47;;
291;SDS011;23311;48.776;9.162;2023-10-19T08:55:46;26.50;;;12.50;;
291;SDS011;23311;48.776;9.162;2023-10-19T08:58:17;14.57;;;13.27;;
291;SDS011;23311;48.776;9.162;2023-10-19T09:00:46;17.60;;;12.97;;
291;SDS011;23311;48.776;9.162;2023-10-19T09:03:18;29.33;;;14.37;;
291;SDS011;23311;48.776;9.162;2023-10-19T09:05:49;16.27;;;13.10;;
291;SDS011;23311;48.776;9.162;2023-10-19T09:08:17;14.60;;;12.40;;
291;SDS011;23311;48.776;9.162;2023-10-19T09:10:49;14.63;;;12.30;;
291;SDS011;23311;48.776;9.162;2023-10-19T09:13:21;13.83;;;10.80;;
291;SDS011;23311;48.776;9.162;2023-10-19T09:15:51;15.43;;;10.43;;
291;SDS011;23311;48.776;9.162;2023-10-19T09:18:23;12.90;;;9.07;;
291;SDS011;23311;48.776;9.162;2023-10-19T09:20:54;19.87;;;10.60;;
291;SDS011;23311;48.776;9.162;2023-10-19T09:23:29;12.23;;;9.30;;
291;SDS011;23311;48.776;9.162;2023-10-19T09:25:59;11.60;;;9.23;;
291;SDS011;23311;48.776;9.162;2023-10-19T09:28:31;9.27;;;7.50;;
291;SDS011;23311;48.776;9.162;2023-10-19T09:31:01;7.77;;;7.27;;
291;SDS011;23311;48.776;9.162;2023-10-19T09:33:31;6.57;;;6.20;;
291;SDS011;23311;48.776;9.162;2023-10-19T09:36:02;8.60;;;6.37;;
291;SDS011;23311;48.776;9.162;2023-10-19T09:38:39;8.43;;;7.67;;
291;SDS011;23311;48.776;9.162;2023-10-19T09:41:11;13.60;;;8.87;;
291;SDS011;23311;48.776;9.162;2023-10-19T09:43:43;10.40;;;8.53;;
291;SDS011;23311;48.776;9.162;2023-10-19T09:46:12;11.20;;;8.83;;
291;SDS011;23311;48.776;9.162;2023-10-19T09:48:49;17.50;;;9.17;;
291;SDS011;23311;48.776;9.162;2023-10-19T09:51:19;12.10;;;9.60;;
291;SDS011;23311;48.776;9.162;2023-10-19T09:53:51;12.10;;;10.20;;
291;SDS011;23311;48.776;9.162;2023-10-19T09:56:27;14.00;;;9.13;;
291;SDS011;23311;48.776;9.162;2023-10-19T09:59:02;9.20;;;6.70;;
291;SDS011;23311;48.776;9.162;2023-10-19T10:04:34;9.73;;;7.17;;
291;SDS011;23311;48.776;9.162;2023-10-19T10:07:04;9.53;;;7.33;;
291;SDS011;23311;48.776;9.162;2023-10-19T10:09:34;10.07;;;7.00;;
291;SDS011;23311;48.776;9.162;2023-10-19T10:12:16;7.30;;;5.23;;
291;SDS011;23311;48.776;9.162;2023-10-19T10:14:56;8.77;;;4.80;;
291;SDS011;23311;48.776;9.162;2023-10-19T10:17:32;5.00;;;4.20;;
291;SDS011;23311;48.776;9.162;2023-10-19T10:23:16;4.97;;;3.87;;
291;SDS011;23311;48.776;9.162;2023-10-19T10:25:49;4.13;;;3.90;;
291;SDS011;23311;48.776;9.162;2023-10-19T10:28:17;4.30;;;3.83;;
291;SDS011;23311;48.776;9.162;2023-10-19T10:33:41;7.50;;;5.90;;
291;SDS011;23311;48.776;9.162;2023-10-19T10:36:12;8.80;;;4.80;;
291;SDS011;23311;48.776;9.162;2023-10-19T10:38:40;7.37;;;5.10;;
291;SDS011;23311;48.776;9.162;2023-10-19T10:41:09;8.27;;;6.00;;
291;SDS011;23311;48.776;9.162;2023-10-19T10:43:50;8.47;;;5.13;;
291;SDS011;23311;48.776;9.162;2023-10-19T10:46:22;6.57;;;5.40;;
291;SDS011;23311;48.776;9.162;2023-10-19T10:48:51;7.20;;;5.70;;
291;SDS011;23311;48.776;9.162;2023-10-19T10:51:19;8.70;;;7.70;;
291;SDS011;23311;48.776;9.162;2023-10-19T10:53:49;4.97;;;4.57;;
291;SDS011;23311;48.776;9.162;2023-10-19T10:56:19;5.83;;;4.77;;
291;SDS011;23311;48.776;9.162;2023-10-19T10:58:49;5.03;;;4.50;;
291;SDS011;23311;48.776;9.162;2023-10-19T11:01:28;4.80;;;4.57;;
291;SDS011;23311;48.776;9.162;2023-10-19T11:04:06;5.60;;;4.60;;
291;SDS011;23311;48.776;9.162;2023-10-19T11:06:45;5.13;;;4.83;;
291;SDS011;23311;48.776;9.162;2023-10-19T11:09:15;7.93;;;4.93;;
291;SDS011;23311;48.776;9.162;2023-10-19T11:11:45;5.30;;;4.60;;
291;SDS011;23311;48.776;9.162;2023-10-19T11:14:15;5.03;;;4.37;;
291;SDS011;23311;48.776;9.162;2023-10-19T11:16:45;3.93;;;3.20;;
291;SDS011;23311;48.776;9.162;2023-10-19T11:19:13;4.10;;;3.70;;
291;SDS011;23311;48.776;9.162;2023-10-19T11:21:51;6.73;;;4.40;;
291;SDS011;23311;48.776;9.162;2023-10-19T11:24:25;3.90;;;3.03;;
291;SDS011;23311;48.776;9.162;2023-10-19T11:26:54;4.27;;;4.03;;
291;SDS011;23311;48.776;9.162;2023-10-19T11:29:22;3.70;;;3.00;;
291;SDS011;23311;48.776;9.162;2023-10-19T11:31:59;5.13;;;3.40;;
291;SDS011;23311;48.776;9.162;2023-10-19T11:34:29;6.50;;;3.87;;
291;SDS011;23311;48.776;9.162;2023-10-19T11:36:58;3.00;;;2.40;;
291;SDS011;23311;48.776;9.162;2023-10-19T11:39:27;7.13;;;3.43;;
291;SDS011;23311;48.776;9.162;2023-10-19T11:41:55;3.70;;;2.80;;
291;SDS011;23311;48.776;9.162;2023-10-19T11:44:23;3.50;;;2.83;;
291;SDS011;23311;48.776;9.162;2023-10-19T11:46:52;4.00;;;3.10;;
291;SDS011;23311;48.776;9.162;2023-10-19T11:49:21;5.50;;;4.07;;
291;SDS011;23311;48.776;9.162;2023-10-19T11:51:52;7.10;;;3.40;;
291;SDS011;23311;48.776;9.162;2023-10-19T11:54:20;6.00;;;3.60;;
291;SDS011;23311;48.776;9.162;2023-10-19T11:56:48;5.17;;;3.80;;
291;SDS011;23311;48.776;9.162;2023-10-19T11:59:17;4.20;;;3.63;;
291;SDS011;23311;48.776;9.162;2023-10-19T12:01:45;5.13;;;4.07;;
291;SDS011;23311;48.776;9.162;2023-10-19T12:04:14;6.87;;;5.20;;
291;SDS011;23311;48.776;9.162;2023-10-19T12:06:43;6.80;;;4.97;;
291;SDS011;23311;48.776;9.162;2023-10-19T12:09:12;5.87;;;4.40;;
291;SDS011;23311;48.776;9.162;2023-10-19T12:11:42;4.53;;;3.53;;
291;SDS011;23311;48.776;9.162;2023-10-19T12:14:14;4.87;;;3.50;;
291;SDS011;23311;48.776;9.162;2023-10-19T12:16:42;5.27;;;3.83;;
291;SDS011;23311;48.776;9.162;2023-10-19T12:19:12;4.47;;;3.40;;
291;SDS011;23311;48.776;9.162;2023-10-19T12:21:41;5.33;;;3.80;;
291;SDS011;23311;48.776;9.162;2023-10-19T12:24:11;4.43;;;3.90;;
291;SDS011;23311;48.776;9.162;2023-10-19T12:26:39;6.30;;;4.07;;
291;SDS011;23311;48.776;9.162;2023-10-19T12:29:08;6.53;;;4.10;;
291;SDS011;23311;48.776;9.162;2023-10-19T12:31:38;6.60;;;4.53;;
291;SDS011;23311;48.776;9.162;2023-10-19T12:34:07;11.07;;;6.43;;
291;SDS011;23311;48.776;9.162;2023-10-19T12:36:38;10.13;;;6.50;;
291;SDS011;23311;48.776;9.162;2023-10-19T12:39:09;7.27;;;5.90;;
291;SDS011;23311;48.776;9.162;2023-10-19T12:41:57;9.30;;;5.70;;
291;SDS011;23311;48.776;9.162;2023-10-19T12:44:27;5.53;;;4.53;;
291;SDS011;23311;48.776;9.162;2023-10-19T12:46:56;5.53;;;4.27;;
291;SDS011;23311;48.776;9.162;2023-10-19T12:49:25;8.90;;;4.90;;
291;SDS011;23311;48.776;9.162;2023-10-19T12:51:53;11.33;;;4.90;;
291;SDS011;23311;48.776;9.162;2023-10-19T12:54:23;7.80;;;5.10;;
291;SDS011;23311;48.776;9.162;2023-10-19T12:56:53;7.90;;;4.77;;
291;SDS011;23311;48.776;9.162;2023-10-19T12:59:21;8.10;;;5.77;;
291;SDS011;23311;48.776;9.162;2023-10-19T13:01:49;9.77;;;6.07;;
291;SDS011;23311;48.776;9.162;2023-10-19T13:04:21;7.00;;;5.40;;
291;SDS011;23311;48.776;9.162;2023-10-19T13:06:50;7.13;;;5.67;;
291;SDS011;23311;48.776;9.162;2023-10-19T13:09:25;5.57;;;5.30;;
291;SDS011;23311;48.776;9.162;2023-10-19T13:11:59;7.03;;;5.53;;
291;SDS011;23311;48.776;9.162;2023-10-19T13:14:27;4.80;;;4.43;;
291;SDS011;23311;48.776;9.162;2023-10-19T13:16:56;7.40;;;5.23;;
291;SDS011;23311;48.776;9.162;2023-10-19T13:19:24;5.20;;;4.80;;
291;SDS011;23311;48.776;9.162;2023-10-19T13:21:52;7.00;;;6.23;;
291;SDS011;23311;48.776;9.162;2023-10-19T13:24:25;9.17;;;6.00;;
291;SDS011;23311;48.776;9.162;2023-10-19T13:26:54;6.87;;;6.50;;
291;SDS011;23311;48.776;9.162;2023-10-19T13:29:22;7.97;;;6.30;;
291;SDS011;23311;48.776;9.162;2023-10-19T13:31:53;6.60;;;5.70;;
291;SDS011;23311;48.776;9.162;2023-10-19T13:34:22;6.67;;;5.90;;
291;SDS011;23311;48.776;9.162;2023-10-19T13:36:50;7.97;;;7.60;;
291;SDS011;23311;48.776;9.162;2023-10-19T13:39:18;8.33;;;7.27;;
291;SDS011;23311;48.776;9.162;2023-10-19T13:41:48;7.40;;;6.80;;
291;SDS011;23311;48.776;9.162;2023-10-19T13:44:16;9.30;;;7.20;;
291;SDS011;23311;48.776;9.162;2023-10-19T13:46:45;8.93;;;7.20;;
291;SDS011;23311;48.776;9.162;2023-10-19T13:49:13;7.43;;;7.03;;
291;SDS011;23311;48.776;9.162;2023-10-19T13:51:45;10.30;;;7.43;;
291;SDS011;23311;48.776;9.162;2023-10-19T13:54:14;9.07;;;8.50;;
291;SDS011;23311;48.776;9.162;2023-10-19T13:56:42;9.40;;;7.50;;
291;SDS011;23311;48.776;9.162;2023-10-19T13:59:11;9.40;;;8.50;;
291;SDS011;23311;48.776;9.162;2023-10-19T14:01:40;8.43;;;8.00;;
291;SDS011;23311;48.776;9.162;2023-10-19T14:04:09;9.17;;;8.67;;
291;SDS011;23311;48.776;9.162;2023-10-19T14:06:38;10.67;;;8.50;;
291;SDS011;23311;48.776;9.162;2023-10-19T14:09:06;9.17;;;7.97;;
291;SDS011;23311;48.776;9.162;2023-10-19T14:11:39;9.30;;;7.63;;
291;SDS011;23311;48.776;9.162;2023-10-19T14:14:07;8.87;;;8.20;;
291;SDS011;23311;48.776;9.162;2023-10-19T14:16:38;9.27;;;8.77;;
291;SDS011;23311;48.776;9.162;2023-10-19T14:19:07;10.40;;;8.33;;
291;SDS011;23311;48.776;9.162;2023-10-19T14:21:35;11.40;;;8.93;;
291;SDS011;23311;48.776;9.162;2023-10-19T14:24:05;9.13;;;8.63;;
291;SDS011;23311;48.776;9.162;2023-10-19T14:26:35;12.53;;;11.90;;
291;SDS011;23311;48.776;9.162;2023-10-19T14:29:05;10.80;;;9.43;;
291;SDS011;23311;48.776;9.162;2023-10-19T14:31:33;11.17;;;8.90;;
291;SDS011;23311;48.776;9.162;2023-10-19T14:34:02;11.40;;;8.93;;
291;SDS011;23311;48.776;9.162;2023-10-19T14:36:31;10.20;;;8.77;;
291;SDS011;23311;48.776;9.162;2023-10-19T14:38:59;11.70;;;9.40;;
291;SDS011;23311;48.776;9.162;2023-10-19T14:41:27;11.70;;;9.80;;
291;SDS011;23311;48.776;9.162;2023-10-19T14:43:56;11.37;;;10.77;;
291;SDS011;23311;48.776;9.162;2023-10-19T14:46:26;11.30;;;10.70;;
291;SDS011;23311;48.776;9.162;2023-10-19T14:48:55;14.50;;;10.17;;
291;SDS011;23311;48.776;9.162;2023-10-19T14:51:25;14.87;;;11.47;;
291;SDS011;23311;48.776;9.162;2023-10-19T14:53:53;9.90;;;9.33;;
291;SDS011;23311;48.776;9.162;2023-10-19T14:56:21;12.17;;;10.90;;
291;SDS011;23311;48.776;9.162;2023-10-19T14:58:49;12.07;;;11.47;;
291;SDS011;23311;48.776;9.162;2023-10-19T15:01:21;10.80;;;10.00;;
291;SDS011;23311;48.776;9.162;2023-10-19T15:03:52;13.10;;;10.40;;
291;SDS011;23311;48.776;9.162;2023-10-19T15:06:20;11.70;;;11.10;;
291;SDS011;23311;48.776;9.162;2023-10-19T15:08:50;10.30;;;9.80;;
291;SDS011;23311;48.776;9.162;2023-10-19T15:11:18;13.67;;;12.13;;
291;SDS011;23311;48.776;9.162;2023-10-19T15:13:48;13.40;;;11.63;;
291;SDS011;23311;48.776;9.162;2023-10-19T15:16:17;15.73;;;12.90;;
291;SDS011;23311;48.776;9.162;2023-10-19T15:18:45;12.70;;;11.80;;
291;SDS011;23311;48.776;9.162;2023-10-19T15:21:14;14.67;;;11.83;;
291;SDS011;23311;48.776;9.162;2023-10-19T15:23:43;12.43;;;10.50;;
291;SDS011;23311;48.776;9.162;2023-10-19T15:26:17;10.83;;;10.23;;
291;SDS011;23311;48.776;9.162;2023-10-19T15:28:45;11.73;;;11.13;;
291;SDS011;23311;48.776;9.162;2023-10-19T15:31:14;11.80;;;11.23;;